Time;durP1;ratioP1;P1;durP2;ratioP2;P2;SDS_P1;SDS_P2;PMS_P1;PMS_P2;Temp;Humidity;BMP_temperature;BMP_pressure;BME280_temperature;BME280_humidity;BME280_pressure;Samples;Min_cycle;Max_cycle;Signal;HPM_P1;HPM_P2
2023/08/20 00:01:58;;;;;;;3.97;3.67;;;;;;;;;;6170592;23;20444;-73
2023/08/20 00:04:27;;;;;;;3.47;3.23;;;;;;;;;;6171107;23;20373;-73
2023/08/20 00:06:56;;;;;;;3.30;3.00;;;;;;;;;;6170973;23;20437;-73
2023/08/20 00:09:27;;;;;;;3.97;3.57;;;;;;;;;;6171396;23;20412;-72
2023/08/20 00:11:56;;;;;;;3.70;3.20;;;;;;;;;;6171090;23;20440;-73
2023/08/20 00:14:51;;;;;;;4.23;3.27;;;;;;;;;;6170886;23;20855;-73
2023/08/20 00:17:20;;;;;;;3.73;3.40;;;;;;;;;;6170699;23;20505;-73
2023/08/20 00:19:49;;;;;;;3.20;3.00;;;;;;;;;;6170881;23;21275;-73
2023/08/20 00:22:18;;;;;;;3.47;3.17;;;;;;;;;;6170705;23;20437;-73
2023/08/20 00:24:48;;;;;;;3.60;3.30;;;;;;;;;;6171572;23;20392;-73
2023/08/20 00:27:17;;;;;;;4.90;3.57;;;;;;;;;;6170434;23;20463;-73
2023/08/20 00:29:46;;;;;;;4.00;3.67;;;;;;;;;;6171342;23;20393;-73
2023/08/20 00:32:16;;;;;;;3.27;2.97;;;;;;;;;;6170410;23;20441;-73
2023/08/20 00:34:45;;;;;;;3.37;3.07;;;;;;;;;;6171200;23;20867;-72
2023/08/20 00:37:13;;;;;;;3.90;3.60;;;;;;;;;;6173167;23;20962;-73
2023/08/20 00:39:42;;;;;;;3.23;2.90;;;;;;;;;;6172383;23;20396;-73
2023/08/20 00:42:13;;;;;;;2.80;2.60;;;;;;;;;;6171201;23;21109;-73
2023/08/20 00:44:44;;;;;;;3.17;2.63;;;;;;;;;;6174116;23;20389;-73
2023/08/20 00:47:14;;;;;;;4.20;3.80;;;;;;;;;;6171919;23;20982;-73
2023/08/20 00:49:43;;;;;;;3.80;3.10;;;;;;;;;;6171764;23;20395;-73
2023/08/20 00:52:12;;;;;;;3.13;2.83;;;;;;;;;;6170616;23;20433;-73
2023/08/20 00:54:41;;;;;;;3.47;3.17;;;;;;;;;;6171664;23;20824;-73
2023/08/20 00:57:10;;;;;;;3.83;3.53;;;;;;;;;;6171112;23;20498;-73
2023/08/20 00:59:40;;;;;;;3.47;3.17;;;;;;;;;;6146372;23;20489;-73
2023/08/20 01:02:08;;;;;;;4.30;3.20;;;;;;;;;;6170615;23;20974;-73
2023/08/20 01:04:37;;;;;;;6.10;3.27;;;;;;;;;;6170692;23;20393;-73
2023/08/20 01:07:10;;;;;;;2.90;2.67;;;;;;;;;;6170705;23;20428;-73
2023/08/20 01:09:44;;;;;;;3.77;3.30;;;;;;;;;;6171656;23;20380;-72
2023/08/20 01:12:13;;;;;;;4.53;3.40;;;;;;;;;;6170720;23;20443;-73
2023/08/20 01:14:43;;;;;;;3.60;3.30;;;;;;;;;;6170569;23;20388;-73
2023/08/20 01:17:11;;;;;;;3.30;3.00;;;;;;;;;;6170176;22;20440;-69
2023/08/20 01:19:42;;;;;;;3.60;3.30;;;;;;;;;;6170728;23;20493;-69
2023/08/20 01:22:23;;;;;;;3.70;3.40;;;;;;;;;;6170860;22;20961;-68
2023/08/20 01:24:58;;;;;;;3.83;3.53;;;;;;;;;;6170806;23;20391;-69
2023/08/20 01:27:30;;;;;;;3.47;3.00;;;;;;;;;;6170294;23;20437;-69
2023/08/20 01:30:03;;;;;;;3.47;3.17;;;;;;;;;;6169824;23;20381;-68
2023/08/20 01:32:32;;;;;;;3.73;3.43;;;;;;;;;;6169104;23;20441;-69
2023/08/20 01:35:01;;;;;;;3.73;3.43;;;;;;;;;;6170573;23;20439;-69
2023/08/20 01:37:30;;;;;;;3.70;3.40;;;;;;;;;;6169985;23;20448;-68
2023/08/20 01:39:58;;;;;;;3.50;3.20;;;;;;;;;;6171081;23;20459;-69
2023/08/20 01:42:27;;;;;;;3.10;2.90;;;;;;;;;;6170127;23;20440;-69
2023/08/20 01:44:55;;;;;;;3.33;3.03;;;;;;;;;;6171593;23;20439;-69
2023/08/20 01:47:25;;;;;;;3.30;3.03;;;;;;;;;;6172250;23;20440;-69
2023/08/20 01:49:54;;;;;;;4.40;3.83;;;;;;;;;;6170770;23;20841;-69
2023/08/20 01:52:23;;;;;;;3.30;3.00;;;;;;;;;;6169357;23;20482;-68
2023/08/20 01:54:52;;;;;;;4.10;3.70;;;;;;;;;;6170655;23;20899;-69
2023/08/20 01:57:20;;;;;;;3.30;2.93;;;;;;;;;;6171010;22;20790;-69
2023/08/20 01:59:49;;;;;;;4.10;3.60;;;;;;;;;;6171297;23;20373;-69
2023/08/20 02:02:17;;;;;;;5.80;3.47;;;;;;;;;;6172720;23;20436;-68
2023/08/20 02:04:48;;;;;;;3.27;2.97;;;;;;;;;;6173825;23;20412;-68
2023/08/20 02:07:17;;;;;;;4.37;3.30;;;;;;;;;;6173585;23;20490;-68
2023/08/20 02:09:47;;;;;;;3.30;3.00;;;;;;;;;;6174498;23;20477;-69
2023/08/20 02:12:15;;;;;;;3.10;2.83;;;;;;;;;;6174982;23;20928;-69
2023/08/20 02:14:44;;;;;;;3.30;3.00;;;;;;;;;;6173301;23;20984;-68
2023/08/20 02:17:13;;;;;;;3.30;3.00;;;;;;;;;;6173945;23;20447;-68
2023/08/20 02:19:42;;;;;;;3.30;2.77;;;;;;;;;;6173137;23;20745;-69
2023/08/20 02:22:12;;;;;;;3.10;2.90;;;;;;;;;;6172990;23;20429;-69
2023/08/20 02:24:41;;;;;;;3.40;2.80;;;;;;;;;;6174197;23;20385;-68
2023/08/20 02:27:10;;;;;;;3.00;2.70;;;;;;;;;;6174765;22;20474;-69
2023/08/20 02:29:38;;;;;;;2.67;2.47;;;;;;;;;;6175183;23;20714;-68
2023/08/20 02:32:07;;;;;;;3.70;3.40;;;;;;;;;;6172885;23;20432;-69
2023/08/20 02:34:36;;;;;;;2.97;2.67;;;;;;;;;;6173011;23;20785;-68
2023/08/20 02:37:04;;;;;;;3.47;3.17;;;;;;;;;;6173268;23;20433;-69
2023/08/20 02:39:35;;;;;;;4.60;3.33;;;;;;;;;;6173833;23;20421;-69
2023/08/20 02:42:03;;;;;;;2.70;2.50;;;;;;;;;;6173239;23;20766;-69
2023/08/20 02:44:32;;;;;;;4.80;3.37;;;;;;;;;;6174523;23;20879;-69
2023/08/20 02:47:01;;;;;;;4.17;3.07;;;;;;;;;;6174403;23;20458;-69
2023/08/20 02:49:30;;;;;;;4.63;3.80;;;;;;;;;;6174736;23;20862;-68
2023/08/20 02:51:59;;;;;;;5.97;3.97;;;;;;;;;;6174095;23;20919;-69
2023/08/20 02:54:28;;;;;;;3.60;3.00;;;;;;;;;;6174768;23;20393;-68
2023/08/20 02:56:59;;;;;;;4.30;3.90;;;;;;;;;;6175063;23;20520;-69
2023/08/20 02:59:27;;;;;;;7.03;3.40;;;;;;;;;;6174754;23;20421;-68
2023/08/20 03:01:56;;;;;;;4.03;3.30;;;;;;;;;;6175180;23;20511;-68
2023/08/20 03:04:25;;;;;;;3.90;3.50;;;;;;;;;;6171856;23;20415;-68
2023/08/20 03:06:54;;;;;;;2.90;2.70;;;;;;;;;;6171944;23;20443;-69
2023/08/20 03:09:22;;;;;;;3.40;3.10;;;;;;;;;;6172360;23;20396;-69
2023/08/20 03:11:51;;;;;;;3.53;3.23;;;;;;;;;;6173532;22;20486;-69
2023/08/20 03:14:21;;;;;;;4.73;3.10;;;;;;;;;;6172081;23;20704;-69
2023/08/20 03:16:50;;;;;;;3.03;2.80;;;;;;;;;;6171433;23;20436;-69
2023/08/20 03:19:19;;;;;;;2.87;2.67;;;;;;;;;;6172720;23;20417;-69
2023/08/20 03:21:48;;;;;;;3.33;3.13;;;;;;;;;;6170935;22;20443;-69
2023/08/20 03:24:16;;;;;;;3.40;3.10;;;;;;;;;;6171945;23;20397;-69
2023/08/20 03:26:46;;;;;;;3.30;2.97;;;;;;;;;;6172308;23;20424;-69
2023/08/20 03:29:15;;;;;;;2.87;2.67;;;;;;;;;;6172186;23;20398;-69
2023/08/20 03:31:45;;;;;;;3.07;2.77;;;;;;;;;;6172266;23;20437;-68
2023/08/20 03:34:14;;;;;;;2.57;2.37;;;;;;;;;;6171754;23;20393;-68
2023/08/20 03:36:42;;;;;;;2.47;2.27;;;;;;;;;;6171418;23;20405;-68
2023/08/20 03:39:13;;;;;;;3.60;3.30;;;;;;;;;;6172150;23;20808;-68
2023/08/20 03:41:42;;;;;;;2.60;2.40;;;;;;;;;;6171847;23;20422;-69
2023/08/20 03:44:10;;;;;;;3.00;2.80;;;;;;;;;;6172191;23;20445;-69
2023/08/20 03:46:39;;;;;;;3.57;3.27;;;;;;;;;;6171078;23;20437;-69
2023/08/20 03:49:10;;;;;;;3.57;2.83;;;;;;;;;;6172943;23;20397;-69
2023/08/20 03:51:38;;;;;;;2.50;2.30;;;;;;;;;;6171162;22;20407;-69
2023/08/20 03:54:07;;;;;;;3.37;2.57;;;;;;;;;;6171611;23;20392;-70
2023/08/20 03:56:36;;;;;;;2.90;2.70;;;;;;;;;;6171463;23;20751;-69
2023/08/20 03:59:04;;;;;;;3.30;3.00;;;;;;;;;;6171004;23;20466;-70
2023/08/20 04:01:33;;;;;;;2.30;2.10;;;;;;;;;;6172332;23;20392;-69
2023/08/20 04:04:04;;;;;;;2.80;2.60;;;;;;;;;;6171476;23;21169;-69
2023/08/20 04:06:34;;;;;;;3.70;2.60;;;;;;;;;;6170310;23;20986;-69
2023/08/20 04:09:03;;;;;;;2.63;2.43;;;;;;;;;;6172219;23;20887;-68
2023/08/20 04:11:32;;;;;;;5.77;3.07;;;;;;;;;;6172490;23;20397;-69
2023/08/20 04:14:01;;;;;;;3.77;3.17;;;;;;;;;;6171752;23;20393;-69
2023/08/20 04:16:31;;;;;;;4.40;3.93;;;;;;;;;;6171700;23;20440;-68
2023/08/20 04:18:59;;;;;;;3.83;3.00;;;;;;;;;;6172310;23;20416;-69
2023/08/20 04:21:28;;;;;;;3.77;3.47;;;;;;;;;;6171451;23;20397;-69
2023/08/20 04:23:58;;;;;;;3.30;3.00;;;;;;;;;;6172243;23;20712;-69
2023/08/20 04:26:27;;;;;;;3.10;2.80;;;;;;;;;;6171205;23;20778;-69
2023/08/20 04:28:57;;;;;;;3.20;2.93;;;;;;;;;;6146449;23;20392;-69
2023/08/20 04:31:26;;;;;;;3.10;2.43;;;;;;;;;;6170610;23;20448;-69
2023/08/20 04:34:06;;;;;;;3.27;2.97;;;;;;;;;;6171293;23;20381;-70
2023/08/20 04:36:51;;;;;;;3.40;3.10;;;;;;;;;;6170550;23;20779;-69
2023/08/20 04:39:22;;;;;;;3.77;3.27;;;;;;;;;;6171707;23;20473;-69
2023/08/20 04:41:57;;;;;;;3.23;2.93;;;;;;;;;;6170335;23;20478;-67
2023/08/20 04:44:27;;;;;;;3.10;2.23;;;;;;;;;;6170510;23;20843;-69
2023/08/20 04:46:57;;;;;;;3.30;3.00;;;;;;;;;;6170775;23;20481;-69
2023/08/20 04:49:29;;;;;;;3.60;3.30;;;;;;;;;;6170771;23;20612;-69
2023/08/20 04:52:00;;;;;;;3.00;2.80;;;;;;;;;;6170337;23;20431;-68
2023/08/20 04:54:32;;;;;;;2.77;2.50;;;;;;;;;;6171637;23;20443;-69
2023/08/20 04:57:03;;;;;;;2.63;2.43;;;;;;;;;;6170610;23;20809;-69
2023/08/20 04:59:31;;;;;;;3.30;3.00;;;;;;;;;;6170698;23;20422;-67
2023/08/20 05:02:18;;;;;;;3.40;3.10;;;;;;;;;;6170034;23;20942;-69
2023/08/20 05:04:53;;;;;;;2.40;2.20;;;;;;;;;;6170616;23;20390;-69
2023/08/20 05:07:22;;;;;;;2.90;2.60;;;;;;;;;;6170785;23;20440;-69
2023/08/20 05:09:52;;;;;;;5.53;3.03;;;;;;;;;;6172446;23;20393;-69
2023/08/20 05:12:21;;;;;;;2.77;2.57;;;;;;;;;;6170894;23;20432;-69
2023/08/20 05:14:53;;;;;;;2.90;2.67;;;;;;;;;;6171752;23;20460;-68
2023/08/20 05:17:22;;;;;;;2.57;2.37;;;;;;;;;;6171268;23;20437;-69
2023/08/20 05:19:51;;;;;;;3.23;2.93;;;;;;;;;;6170974;23;20516;-69
2023/08/20 05:22:19;;;;;;;3.80;3.00;;;;;;;;;;6172781;22;21080;-68
2023/08/20 05:24:48;;;;;;;2.63;2.43;;;;;;;;;;6171786;23;20771;-69
2023/08/20 05:27:19;;;;;;;3.03;2.80;;;;;;;;;;6170747;23;20930;-69
2023/08/20 05:29:51;;;;;;;3.03;2.73;;;;;;;;;;6170715;23;20377;-69
2023/08/20 05:32:21;;;;;;;2.60;2.40;;;;;;;;;;6170561;23;20428;-69
2023/08/20 05:34:50;;;;;;;3.83;2.37;;;;;;;;;;6170498;23;20401;-69
2023/08/20 05:37:19;;;;;;;3.07;2.47;;;;;;;;;;6169843;23;20677;-69
2023/08/20 05:39:48;;;;;;;3.03;2.83;;;;;;;;;;6170543;23;20602;-68
2023/08/20 05:42:17;;;;;;;2.77;2.57;;;;;;;;;;6170513;23;20429;-69
2023/08/20 05:44:54;;;;;;;2.90;2.70;;;;;;;;;;6170423;23;20452;-69
2023/08/20 05:47:27;;;;;;;2.77;2.57;;;;;;;;;;6169913;23;20440;-68
2023/08/20 05:49:56;;;;;;;3.30;2.70;;;;;;;;;;6169978;23;20389;-68
2023/08/20 05:52:25;;;;;;;3.43;3.13;;;;;;;;;;6170254;23;20519;-69
2023/08/20 05:54:54;;;;;;;3.40;3.10;;;;;;;;;;6170861;23;20499;-69
2023/08/20 05:57:23;;;;;;;3.30;3.00;;;;;;;;;;6169460;23;20515;-68
2023/08/20 05:59:53;;;;;;;4.40;4.00;;;;;;;;;;6170593;23;20456;-69
2023/08/20 06:02:22;;;;;;;3.30;3.00;;;;;;;;;;6170347;23;20453;-70
2023/08/20 06:04:51;;;;;;;3.47;3.13;;;;;;;;;;6169142;23;20428;-69
2023/08/20 06:07:19;;;;;;;4.00;3.40;;;;;;;;;;6171697;22;20442;-70
2023/08/20 06:09:49;;;;;;;3.70;3.33;;;;;;;;;;6170614;23;20381;-69
2023/08/20 06:12:18;;;;;;;3.27;3.00;;;;;;;;;;6169856;23;20964;-70
2023/08/20 06:14:47;;;;;;;3.60;3.13;;;;;;;;;;6169756;23;20458;-69
2023/08/20 06:17:17;;;;;;;5.20;4.70;;;;;;;;;;6171965;23;20436;-68
2023/08/20 06:19:45;;;;;;;4.63;4.13;;;;;;;;;;6170991;23;20451;-69
2023/08/20 06:22:14;;;;;;;4.47;3.27;;;;;;;;;;6171563;23;20754;-69
2023/08/20 06:24:43;;;;;;;4.37;3.97;;;;;;;;;;6171470;23;20890;-68
2023/08/20 06:27:12;;;;;;;4.27;3.43;;;;;;;;;;6170787;23;20486;-68
2023/08/20 06:29:40;;;;;;;4.50;3.13;;;;;;;;;;6171616;23;20453;-69
2023/08/20 06:32:09;;;;;;;5.17;3.90;;;;;;;;;;6170984;23;20938;-69
2023/08/20 06:34:39;;;;;;;4.30;3.90;;;;;;;;;;6170559;23;20376;-69
2023/08/20 06:37:08;;;;;;;4.07;3.30;;;;;;;;;;6171083;23;20440;-69
2023/08/20 06:39:36;;;;;;;3.73;2.80;;;;;;;;;;6172330;23;20442;-69
2023/08/20 06:42:05;;;;;;;4.10;3.50;;;;;;;;;;6171285;23;20817;-69
2023/08/20 06:44:35;;;;;;;3.90;3.60;;;;;;;;;;6171453;23;20382;-69
2023/08/20 06:47:03;;;;;;;4.43;4.03;;;;;;;;;;6170887;23;20444;-69
2023/08/20 06:49:32;;;;;;;4.20;3.80;;;;;;;;;;6173100;23;20871;-69
2023/08/20 06:52:02;;;;;;;3.30;2.93;;;;;;;;;;6171078;23;20621;-67
2023/08/20 06:54:31;;;;;;;3.60;3.30;;;;;;;;;;6173500;23;20373;-68
2023/08/20 06:56:59;;;;;;;3.60;3.30;;;;;;;;;;6171424;23;20440;-69
2023/08/20 06:59:28;;;;;;;3.47;3.00;;;;;;;;;;6171966;23;20389;-69
2023/08/20 07:01:57;;;;;;;3.30;3.00;;;;;;;;;;6171659;23;21004;-68
2023/08/20 07:04:25;;;;;;;3.00;2.80;;;;;;;;;;6171423;23;20376;-68
2023/08/20 07:06:54;;;;;;;2.87;2.57;;;;;;;;;;6171599;23;21088;-70
2023/08/20 07:09:24;;;;;;;3.77;3.23;;;;;;;;;;6172206;23;20403;-69
2023/08/20 07:11:52;;;;;;;3.20;2.90;;;;;;;;;;6170977;23;20445;-69
2023/08/20 07:14:21;;;;;;;3.07;2.77;;;;;;;;;;6169561;23;20397;-69
2023/08/20 07:16:50;;;;;;;2.77;2.57;;;;;;;;;;6171487;23;20440;-68
2023/08/20 07:19:18;;;;;;;3.10;2.80;;;;;;;;;;6172068;23;20416;-68
2023/08/20 07:21:47;;;;;;;3.27;2.97;;;;;;;;;;6170768;22;20751;-69
2023/08/20 07:24:16;;;;;;;2.90;2.70;;;;;;;;;;6171705;23;21215;-69
2023/08/20 07:26:46;;;;;;;3.10;2.80;;;;;;;;;;6171888;23;20412;-68
2023/08/20 07:29:14;;;;;;;3.53;3.23;;;;;;;;;;6170982;23;20384;-69
2023/08/20 07:31:43;;;;;;;3.20;2.90;;;;;;;;;;6173471;23;20443;-69
2023/08/20 07:34:12;;;;;;;3.10;2.77;;;;;;;;;;6172310;23;20400;-69
2023/08/20 07:36:41;;;;;;;3.20;2.63;;;;;;;;;;6169627;23;20441;-69
2023/08/20 07:39:09;;;;;;;3.57;3.27;;;;;;;;;;6172163;23;20739;-69
2023/08/20 07:41:38;;;;;;;2.83;2.60;;;;;;;;;;6172147;23;20463;-67
2023/08/20 07:44:08;;;;;;;2.40;2.20;;;;;;;;;;6170839;23;20409;-69
2023/08/20 07:46:37;;;;;;;3.27;2.97;;;;;;;;;;6169355;23;20449;-68
2023/08/20 07:49:05;;;;;;;3.77;3.40;;;;;;;;;;6171579;23;20890;-70
2023/08/20 07:51:34;;;;;;;3.23;2.73;;;;;;;;;;6170629;23;20470;-69
2023/08/20 07:54:03;;;;;;;2.63;2.43;;;;;;;;;;6171298;23;20454;-69
2023/08/20 07:56:31;;;;;;;3.13;2.93;;;;;;;;;;6171023;23;20437;-69
2023/08/20 07:59:00;;;;;;;3.83;3.27;;;;;;;;;;6171437;23;20389;-69
2023/08/20 08:01:31;;;;;;;3.00;2.70;;;;;;;;;;6165697;23;20437;-69
2023/08/20 08:04:00;;;;;;;7.13;6.30;;;;;;;;;;6167951;23;20377;-67
2023/08/20 08:06:28;;;;;;;7.50;6.60;;;;;;;;;;6170749;23;20515;-68
2023/08/20 08:08:57;;;;;;;8.83;6.57;;;;;;;;;;6170392;23;20726;-68
2023/08/20 08:11:26;;;;;;;7.20;5.90;;;;;;;;;;6170782;23;20748;-70
2023/08/20 08:13:54;;;;;;;12.80;5.77;;;;;;;;;;6170838;23;20453;-69
2023/08/20 08:16:23;;;;;;;6.80;4.83;;;;;;;;;;6169223;23;20816;-68
2023/08/20 08:18:53;;;;;;;10.63;7.40;;;;;;;;;;6170624;23;20399;-70
2023/08/20 08:21:22;;;;;;;9.53;7.37;;;;;;;;;;6168752;23;20467;-72
2023/08/20 08:23:50;;;;;;;7.67;6.67;;;;;;;;;;6170108;23;20462;-72
2023/08/20 08:26:19;;;;;;;10.90;8.43;;;;;;;;;;6171848;23;20428;-72
2023/08/20 08:28:47;;;;;;;10.23;8.03;;;;;;;;;;6172209;23;20901;-70
2023/08/20 08:31:16;;;;;;;7.93;6.93;;;;;;;;;;6169665;23;20632;-68
2023/08/20 08:33:45;;;;;;;12.10;7.60;;;;;;;;;;6171056;23;20389;-68
2023/08/20 08:36:16;;;;;;;7.63;6.70;;;;;;;;;;6170182;23;20439;-68
2023/08/20 08:38:45;;;;;;;8.17;6.50;;;;;;;;;;6171854;23;20718;-69
2023/08/20 08:41:15;;;;;;;6.00;5.40;;;;;;;;;;6170158;23;20448;-69
2023/08/20 08:43:43;;;;;;;8.07;5.60;;;;;;;;;;6170341;23;20789;-69
2023/08/20 08:46:14;;;;;;;7.73;5.40;;;;;;;;;;6171660;23;20809;-69
2023/08/20 08:48:43;;;;;;;6.37;4.90;;;;;;;;;;6171240;23;20413;-69
2023/08/20 08:51:13;;;;;;;6.83;4.73;;;;;;;;;;6144883;23;20437;-69
2023/08/20 08:53:45;;;;;;;6.40;5.13;;;;;;;;;;6172161;23;20389;-69
2023/08/20 08:56:13;;;;;;;5.73;5.23;;;;;;;;;;6172088;23;20440;-70
2023/08/20 08:58:42;;;;;;;4.93;4.47;;;;;;;;;;6170931;23;20450;-69
2023/08/20 09:01:11;;;;;;;5.00;4.40;;;;;;;;;;6169398;23;20498;-66
2023/08/20 09:03:39;;;;;;;7.07;6.37;;;;;;;;;;6168823;23;20397;-69
2023/08/20 09:06:10;;;;;;;6.30;5.70;;;;;;;;;;6144976;23;20401;-68
2023/08/20 09:08:38;;;;;;;6.43;5.83;;;;;;;;;;6169241;23;20381;-67
2023/08/20 09:11:09;;;;;;;7.30;5.57;;;;;;;;;;6168973;23;20439;-69
2023/08/20 09:13:38;;;;;;;7.70;4.60;;;;;;;;;;6169819;23;20404;-70
2023/08/20 09:16:07;;;;;;;6.17;4.70;;;;;;;;;;6170913;23;20676;-69
2023/08/20 09:18:40;;;;;;;5.63;4.33;;;;;;;;;;6171120;23;20897;-69
2023/08/20 09:21:09;;;;;;;10.27;7.40;;;;;;;;;;6170403;23;20436;-68
2023/08/20 09:23:38;;;;;;;7.50;5.30;;;;;;;;;;6172113;23;20391;-68
2023/08/20 09:26:07;;;;;;;5.77;4.90;;;;;;;;;;6171734;23;20789;-68
2023/08/20 09:28:44;;;;;;;6.57;4.53;;;;;;;;;;6171212;23;20411;-69
2023/08/20 09:31:12;;;;;;;6.23;5.43;;;;;;;;;;6169467;23;20428;-67
2023/08/20 09:33:50;;;;;;;9.00;6.30;;;;;;;;;;6169934;23;20442;-68
2023/08/20 09:36:19;;;;;;;7.67;7.00;;;;;;;;;;6169891;23;20907;-69
2023/08/20 09:38:47;;;;;;;8.00;7.20;;;;;;;;;;6172683;23;20377;-69
2023/08/20 09:41:19;;;;;;;8.50;6.40;;;;;;;;;;6170801;23;20747;-69
2023/08/20 09:43:50;;;;;;;7.23;6.53;;;;;;;;;;6170261;23;20385;-69
2023/08/20 09:46:20;;;;;;;6.60;5.10;;;;;;;;;;6171489;23;20423;-70
2023/08/20 09:48:50;;;;;;;6.90;6.03;;;;;;;;;;6170812;23;20421;-69
2023/08/20 09:51:21;;;;;;;7.50;6.00;;;;;;;;;;6167589;23;20432;-70
2023/08/20 09:53:52;;;;;;;7.53;5.57;;;;;;;;;;6169122;23;20400;-70
2023/08/20 09:56:23;;;;;;;8.10;4.83;;;;;;;;;;6172363;23;20421;-69
2023/08/20 09:58:54;;;;;;;5.80;4.87;;;;;;;;;;6170794;23;20692;-69
2023/08/20 10:01:22;;;;;;;5.83;5.33;;;;;;;;;;6169991;23;20437;-68
2023/08/20 10:03:51;;;;;;;5.70;5.17;;;;;;;;;;6170113;23;20428;-69
2023/08/20 10:06:20;;;;;;;8.07;5.80;;;;;;;;;;6170616;23;20444;-70
2023/08/20 10:08:49;;;;;;;6.03;5.20;;;;;;;;;;6171968;23;20873;-68
2023/08/20 10:11:18;;;;;;;6.97;4.67;;;;;;;;;;6169291;23;21144;-69
2023/08/20 10:13:46;;;;;;;5.73;5.10;;;;;;;;;;6170410;23;20393;-69
2023/08/20 10:16:21;;;;;;;5.43;4.93;;;;;;;;;;6170529;23;20933;-68
2023/08/20 10:18:50;;;;;;;4.77;4.30;;;;;;;;;;6169212;23;20708;-69
2023/08/20 10:21:19;;;;;;;5.43;4.80;;;;;;;;;;6168731;23;20469;-67
2023/08/20 10:23:50;;;;;;;4.67;4.27;;;;;;;;;;6168415;23;20444;-69
2023/08/20 10:26:24;;;;;;;5.60;5.10;;;;;;;;;;6169071;23;20435;-69
2023/08/20 10:28:52;;;;;;;6.23;4.90;;;;;;;;;;6169117;23;20408;-69
2023/08/20 10:31:27;;;;;;;4.63;4.23;;;;;;;;;;6169746;23;20429;-69
2023/08/20 10:33:59;;;;;;;4.87;4.47;;;;;;;;;;6143962;23;20401;-68
2023/08/20 10:36:28;;;;;;;4.83;4.43;;;;;;;;;;6169501;23;20427;-69
2023/08/20 10:38:58;;;;;;;5.23;4.83;;;;;;;;;;6172323;23;20731;-69
2023/08/20 10:41:27;;;;;;;5.10;4.67;;;;;;;;;;6167824;23;20471;-68
2023/08/20 10:43:59;;;;;;;5.10;4.60;;;;;;;;;;6169372;23;20466;-69
2023/08/20 10:46:30;;;;;;;5.03;4.60;;;;;;;;;;6169513;23;20742;-68
2023/08/20 10:49:00;;;;;;;5.77;5.20;;;;;;;;;;6169684;23;20488;-68
2023/08/20 10:51:29;;;;;;;4.87;4.47;;;;;;;;;;6169397;23;20399;-69
2023/08/20 10:54:05;;;;;;;5.33;4.80;;;;;;;;;;6168287;23;20385;-69
2023/08/20 10:56:41;;;;;;;4.50;4.10;;;;;;;;;;6168494;23;20467;-68
2023/08/20 10:59:10;;;;;;;7.20;5.50;;;;;;;;;;6169262;23;20381;-69
2023/08/20 11:01:40;;;;;;;7.90;5.53;;;;;;;;;;6169493;23;20454;-69
2023/08/20 11:04:10;;;;;;;5.03;4.63;;;;;;;;;;6170071;23;20413;-69
2023/08/20 11:06:40;;;;;;;6.60;4.80;;;;;;;;;;6169460;23;20971;-68
2023/08/20 11:09:10;;;;;;;6.63;4.90;;;;;;;;;;6172219;23;20401;-69
2023/08/20 11:11:39;;;;;;;6.77;5.23;;;;;;;;;;6170905;23;20960;-70
2023/08/20 11:14:09;;;;;;;6.60;4.80;;;;;;;;;;6171017;23;20408;-70
2023/08/20 11:16:37;;;;;;;6.63;6.00;;;;;;;;;;6172457;23;20427;-71
2023/08/20 11:19:08;;;;;;;9.43;7.70;;;;;;;;;;6169799;23;20487;-70
2023/08/20 11:21:37;;;;;;;7.10;6.50;;;;;;;;;;6168615;23;20954;-69
2023/08/20 11:24:06;;;;;;;8.60;7.80;;;;;;;;;;6170021;23;20942;-70
2023/08/20 11:26:35;;;;;;;7.93;7.13;;;;;;;;;;6169837;23;20436;-71
2023/08/20 11:29:07;;;;;;;8.20;7.40;;;;;;;;;;6170450;23;20405;-69
2023/08/20 11:31:35;;;;;;;9.03;8.20;;;;;;;;;;6170487;22;20464;-70
2023/08/20 11:34:04;;;;;;;9.33;8.43;;;;;;;;;;6170460;23;20400;-71
2023/08/20 11:36:35;;;;;;;9.17;8.40;;;;;;;;;;6169995;23;20409;-70
2023/08/20 11:39:04;;;;;;;8.13;7.40;;;;;;;;;;6170808;23;20397;-71
2023/08/20 11:41:32;;;;;;;11.20;8.27;;;;;;;;;;6170929;23;20389;-71
2023/08/20 11:44:01;;;;;;;8.10;7.30;;;;;;;;;;6170547;23;20436;-70
2023/08/20 11:46:30;;;;;;;10.00;8.67;;;;;;;;;;6171666;23;20416;-71
2023/08/20 11:49:05;;;;;;;9.23;8.13;;;;;;;;;;6171972;23;20415;-71
2023/08/20 11:51:38;;;;;;;8.73;7.47;;;;;;;;;;6170804;23;20392;-71
2023/08/20 11:54:07;;;;;;;12.80;8.43;;;;;;;;;;6169875;23;20390;-71
2023/08/20 11:56:38;;;;;;;7.87;7.17;;;;;;;;;;6168539;23;20425;-71
2023/08/20 11:59:11;;;;;;;8.87;7.97;;;;;;;;;;6169974;23;20774;-71
2023/08/20 12:01:40;;;;;;;8.53;7.73;;;;;;;;;;6169886;23;20436;-71
2023/08/20 12:04:10;;;;;;;9.50;7.33;;;;;;;;;;6170134;23;20423;-71
2023/08/20 12:06:42;;;;;;;12.30;8.20;;;;;;;;;;6169743;23;20444;-71
2023/08/20 12:09:28;;;;;;;8.30;7.50;;;;;;;;;;6170517;23;20870;-71
2023/08/20 12:11:57;;;;;;;8.03;7.23;;;;;;;;;;6171197;23;20770;-71
2023/08/20 12:14:26;;;;;;;7.70;7.00;;;;;;;;;;6169899;23;20398;-71
2023/08/20 12:16:55;;;;;;;7.20;6.57;;;;;;;;;;6170911;23;20494;-71
2023/08/20 12:19:24;;;;;;;7.23;6.67;;;;;;;;;;6170762;23;20731;-71
2023/08/20 12:21:54;;;;;;;7.77;7.13;;;;;;;;;;6170179;23;20439;-70
2023/08/20 12:24:23;;;;;;;7.43;6.63;;;;;;;;;;6170998;23;20754;-71
2023/08/20 12:26:51;;;;;;;7.57;6.87;;;;;;;;;;6170078;23;20432;-71
2023/08/20 12:29:20;;;;;;;7.47;6.77;;;;;;;;;;6170141;23;20400;-71
2023/08/20 12:31:49;;;;;;;9.47;7.40;;;;;;;;;;6170093;23;20503;-71
2023/08/20 12:34:17;;;;;;;6.90;6.20;;;;;;;;;;6171641;23;20388;-70
2023/08/20 12:36:46;;;;;;;8.73;7.93;;;;;;;;;;6166073;23;20915;-69
2023/08/20 12:39:16;;;;;;;7.17;6.43;;;;;;;;;;6170603;23;20404;-69
2023/08/20 12:41:45;;;;;;;9.47;6.47;;;;;;;;;;6168246;23;20436;-68
2023/08/20 12:44:13;;;;;;;9.00;6.67;;;;;;;;;;6170469;23;20435;-69
2023/08/20 12:46:42;;;;;;;6.93;6.33;;;;;;;;;;6170622;23;20415;-69
2023/08/20 12:49:11;;;;;;;7.20;6.60;;;;;;;;;;6170545;23;20508;-68
2023/08/20 12:51:39;;;;;;;9.13;6.33;;;;;;;;;;6168758;23;20496;-69
2023/08/20 12:54:08;;;;;;;7.40;6.80;;;;;;;;;;6170635;23;20454;-68
2023/08/20 12:56:38;;;;;;;8.17;6.50;;;;;;;;;;6170164;23;20436;-68
2023/08/20 12:59:07;;;;;;;6.63;6.03;;;;;;;;;;6169644;23;20396;-69
2023/08/20 13:01:36;;;;;;;7.67;6.50;;;;;;;;;;6168965;23;20397;-69
2023/08/20 13:04:05;;;;;;;6.97;6.33;;;;;;;;;;6167516;23;20420;-68
2023/08/20 13:06:34;;;;;;;7.20;6.60;;;;;;;;;;6168355;23;20500;-69
2023/08/20 13:09:03;;;;;;;7.03;6.07;;;;;;;;;;6168767;23;20172;-68
2023/08/20 13:11:32;;;;;;;10.07;7.00;;;;;;;;;;6171146;23;20431;-69
2023/08/20 13:14:02;;;;;;;7.47;6.73;;;;;;;;;;6169624;23;20403;-68
2023/08/20 13:16:31;;;;;;;6.27;5.77;;;;;;;;;;6170570;23;20785;-69
2023/08/20 13:19:00;;;;;;;5.97;5.47;;;;;;;;;;6170380;23;20471;-69
2023/08/20 13:21:29;;;;;;;6.20;5.70;;;;;;;;;;6170766;23;20921;-67
2023/08/20 13:23:57;;;;;;;6.37;5.77;;;;;;;;;;6170926;23;20420;-69
2023/08/20 13:26:26;;;;;;;8.23;6.00;;;;;;;;;;6171142;23;20442;-68
2023/08/20 13:28:54;;;;;;;6.80;6.07;;;;;;;;;;6170999;23;20435;-69
2023/08/20 13:31:24;;;;;;;6.50;5.70;;;;;;;;;;6171075;23;20445;-69
2023/08/20 13:33:53;;;;;;;7.57;6.50;;;;;;;;;;6169766;23;20389;-69
2023/08/20 13:36:22;;;;;;;6.83;6.23;;;;;;;;;;6171822;23;20405;-69
2023/08/20 13:38:50;;;;;;;6.87;6.33;;;;;;;;;;6170738;23;20882;-69
2023/08/20 13:41:19;;;;;;;7.10;6.40;;;;;;;;;;6169709;23;20432;-67
2023/08/20 13:43:48;;;;;;;7.43;5.90;;;;;;;;;;6170184;23;20377;-69
2023/08/20 13:46:17;;;;;;;8.10;5.67;;;;;;;;;;6170709;23;20420;-69
2023/08/20 13:48:47;;;;;;;8.27;7.47;;;;;;;;;;6170834;23;20404;-69
2023/08/20 13:51:15;;;;;;;7.70;5.60;;;;;;;;;;6169279;23;20421;-69
2023/08/20 13:53:44;;;;;;;6.03;5.53;;;;;;;;;;6169702;23;21265;-71
2023/08/20 13:56:13;;;;;;;7.30;6.00;;;;;;;;;;6170446;23;20424;-71
2023/08/20 13:58:41;;;;;;;6.87;6.17;;;;;;;;;;6172037;23;20765;-71
2023/08/20 14:01:11;;;;;;;5.73;5.13;;;;;;;;;;6145348;23;20440;-69
2023/08/20 14:03:40;;;;;;;6.70;6.03;;;;;;;;;;6170792;23;20427;-69
2023/08/20 14:06:10;;;;;;;8.20;5.93;;;;;;;;;;6169860;23;20396;-69
2023/08/20 14:08:39;;;;;;;5.77;5.27;;;;;;;;;;6167730;23;20773;-70
2023/08/20 14:11:07;;;;;;;6.00;5.40;;;;;;;;;;6166889;23;20429;-69
2023/08/20 14:13:36;;;;;;;6.97;6.13;;;;;;;;;;6166838;23;20401;-69
2023/08/20 14:16:08;;;;;;;6.17;5.63;;;;;;;;;;6168220;23;20404;-71
2023/08/20 14:18:37;;;;;;;5.00;4.50;;;;;;;;;;6171606;23;20480;-73
2023/08/20 14:21:06;;;;;;;7.53;5.43;;;;;;;;;;6170356;23;20454;-73
2023/08/20 14:23:36;;;;;;;6.30;5.70;;;;;;;;;;6171187;23;20532;-73
2023/08/20 14:26:05;;;;;;;4.73;4.43;;;;;;;;;;6170682;23;20428;-72
2023/08/20 14:28:34;;;;;;;5.80;4.87;;;;;;;;;;6172337;23;20401;-72
2023/08/20 14:31:04;;;;;;;6.57;5.30;;;;;;;;;;6171738;23;20438;-73
2023/08/20 14:33:33;;;;;;;5.23;4.83;;;;;;;;;;6146208;23;20732;-73
2023/08/20 14:36:01;;;;;;;5.80;5.30;;;;;;;;;;6169835;23;20440;-73
2023/08/20 14:38:30;;;;;;;6.10;5.50;;;;;;;;;;6171944;23;20452;-73
2023/08/20 14:41:02;;;;;;;5.70;5.20;;;;;;;;;;6173239;23;20404;-72
2023/08/20 14:43:32;;;;;;;5.90;5.40;;;;;;;;;;6172203;23;20456;-73
2023/08/20 14:46:01;;;;;;;5.97;5.20;;;;;;;;;;6171611;23;20953;-73
2023/08/20 14:48:30;;;;;;;6.00;5.50;;;;;;;;;;6172439;23;20388;-73
2023/08/20 14:50:58;;;;;;;5.93;5.33;;;;;;;;;;6171831;23;20901;-72
2023/08/20 14:53:27;;;;;;;5.77;5.27;;;;;;;;;;6172692;23;20393;-72
2023/08/20 14:55:56;;;;;;;5.60;5.03;;;;;;;;;;6171447;23;20404;-72
2023/08/20 14:58:26;;;;;;;6.30;4.97;;;;;;;;;;6172498;23;20389;-73